Time;durP1;ratioP1;P1;durP2;ratioP2;P2;SDS_P1;SDS_P2;PMS_P1;PMS_P2;Temp;Humidity;BMP_temperature;BMP_pressure;BME280_temperature;BME280_humidity;BME280_pressure;Samples;Min_cycle;Max_cycle;Signal;HPM_P1;HPM_P2
2024/02/13 00:00:48;;;;;;;12.13;4.07;;;5.40;99.90;;;;;;5007956;28;20022;-80
2024/02/13 00:03:14;;;;;;;16.05;4.88;;;5.40;99.90;;;;;;5006569;28;20032;-80
2024/02/13 00:05:40;;;;;;;8.20;4.03;;;5.40;99.90;;;;;;4993003;28;20033;-80
2024/02/13 00:08:06;;;;;;;12.88;4.43;;;5.30;99.90;;;;;;4991039;28;20458;-80
2024/02/13 00:10:33;;;;;;;11.63;4.40;;;5.30;99.90;;;;;;5007990;28;20132;-80
2024/02/13 00:12:58;;;;;;;10.32;4.30;;;5.30;99.90;;;;;;4990391;28;20391;-80
2024/02/13 00:15:25;;;;;;;13.23;4.88;;;5.30;99.90;;;;;;5007899;28;20018;-80
2024/02/13 00:17:51;;;;;;;11.50;4.65;;;5.30;99.90;;;;;;5007847;28;20678;-80
2024/02/13 00:20:17;;;;;;;13.63;4.82;;;5.30;99.90;;;;;;5007803;28;20080;-80
2024/02/13 00:22:49;;;;;;;12.32;5.13;;;5.30;99.90;;;;;;5008541;28;20041;-80
2024/02/13 00:25:17;;;;;;;11.77;4.43;;;5.30;99.90;;;;;;5007876;28;20447;-80
2024/02/13 00:27:43;;;;;;;14.48;5.13;;;5.30;99.90;;;;;;5007659;28;20025;-79
2024/02/13 00:30:09;;;;;;;11.52;5.28;;;5.30;99.90;;;;;;4990154;28;20022;-81
2024/02/13 00:32:39;;;;;;;13.88;5.15;;;5.20;99.90;;;;;;5007345;28;20025;-81
2024/02/13 00:35:08;;;;;;;15.30;5.88;;;5.20;99.90;;;;;;5007922;28;20117;-81
2024/02/13 00:37:36;;;;;;;14.25;5.63;;;5.20;99.90;;;;;;5008059;28;20022;-81
2024/02/13 00:40:05;;;;;;;13.90;6.15;;;5.20;99.90;;;;;;5007441;28;20033;-81
2024/02/13 00:42:35;;;;;;;9.95;5.32;;;5.20;99.90;;;;;;5007392;28;20026;-81
2024/02/13 00:45:05;;;;;;;12.90;6.25;;;5.20;99.90;;;;;;5007662;28;20053;-81
2024/02/13 00:47:31;;;;;;;18.60;7.07;;;5.10;99.90;;;;;;5007210;28;20096;-81
2024/02/13 00:49:57;;;;;;;14.30;6.55;;;5.10;99.90;;;;;;5007532;28;20107;-81
2024/02/13 00:52:23;;;;;;;13.25;7.07;;;5.10;99.90;;;;;;5006847;28;20108;-80
2024/02/13 00:54:49;;;;;;;15.18;7.68;;;5.10;99.90;;;;;;5007374;28;20109;-81
2024/02/13 00:57:15;;;;;;;15.00;8.48;;;5.10;99.90;;;;;;5007164;28;20018;-81
2024/02/13 00:59:43;;;;;;;21.75;8.25;;;5.10;99.90;;;;;;4989714;28;20036;-81
2024/02/13 01:02:08;;;;;;;16.27;7.63;;;5.10;99.90;;;;;;5007043;28;20022;-81
2024/02/13 01:04:34;;;;;;;17.48;8.77;;;5.10;99.90;;;;;;5007731;28;20033;-81
2024/02/13 01:07:01;;;;;;;15.75;9.20;;;5.00;99.90;;;;;;5006765;28;20506;-81
2024/02/13 01:09:26;;;;;;;18.58;9.23;;;5.00;99.90;;;;;;4989573;28;20025;-81
2024/02/13 01:11:52;;;;;;;17.67;9.38;;;5.00;99.90;;;;;;4989179;28;20403;-80
2024/02/13 01:14:18;;;;;;;20.60;9.27;;;5.00;99.90;;;;;;5007425;28;20026;-80
2024/02/13 01:16:44;;;;;;;19.38;9.80;;;5.00;99.90;;;;;;5006622;28;20499;-80
2024/02/13 01:19:10;;;;;;;16.77;9.38;;;5.00;99.90;;;;;;5007089;28;20103;-79
2024/02/13 01:21:36;;;;;;;17.15;9.75;;;5.00;99.90;;;;;;5006655;28;20476;-80
2024/02/13 01:24:02;;;;;;;18.08;10.15;;;5.00;99.90;;;;;;5006896;28;20030;-80
2024/02/13 01:26:29;;;;;;;21.70;11.80;;;4.90;99.90;;;;;;5006897;28;20020;-80
2024/02/13 01:28:54;;;;;;;17.40;11.25;;;4.90;99.90;;;;;;5006504;28;20022;-80
2024/02/13 01:31:20;;;;;;;21.15;11.88;;;4.90;99.90;;;;;;5006390;28;20034;-79
2024/02/13 01:33:46;;;;;;;22.30;11.95;;;5.00;99.90;;;;;;4988989;28;20513;-80
2024/02/13 01:36:11;;;;;;;21.98;11.48;;;4.90;99.90;;;;;;4988761;28;20038;-80
2024/02/13 01:38:37;;;;;;;21.33;12.85;;;4.90;99.90;;;;;;5006638;28;20028;-80
2024/02/13 01:41:04;;;;;;;21.77;14.60;;;4.90;99.90;;;;;;5006471;28;20032;-80
2024/02/13 01:43:33;;;;;;;23.92;13.05;;;4.90;99.90;;;;;;4988941;28;20080;-80
2024/02/13 01:46:06;;;;;;;22.92;14.05;;;4.90;99.90;;;;;;5005702;28;20686;-80
2024/02/13 01:48:32;;;;;;;26.13;14.13;;;4.90;99.90;;;;;;5006903;28;20495;-80
2024/02/13 01:51:00;;;;;;;22.85;13.95;;;4.90;99.90;;;;;;5006328;28;20028;-81
2024/02/13 01:53:29;;;;;;;23.67;13.50;;;4.90;99.90;;;;;;5006618;28;20022;-80
2024/02/13 01:55:58;;;;;;;22.33;12.95;;;4.90;99.90;;;;;;4992603;28;20641;-80
2024/02/13 01:58:25;;;;;;;24.58;13.70;;;4.90;99.90;;;;;;5006526;28;20464;-80
2024/02/13 02:00:59;;;;;;;22.77;12.85;;;5.00;99.90;;;;;;5005902;28;20084;-81
2024/02/13 02:03:31;;;;;;;24.27;13.63;;;5.00;99.90;;;;;;5006580;28;20022;-81
2024/02/13 02:06:03;;;;;;;23.38;12.45;;;5.00;99.90;;;;;;4987951;28;20246;-80
2024/02/13 02:08:28;;;;;;;27.58;14.00;;;4.90;99.90;;;;;;5006603;28;20492;-81
2024/02/13 02:10:57;;;;;;;19.50;12.48;;;4.90;99.90;;;;;;5005524;28;20032;-80
2024/02/13 02:13:25;;;;;;;24.00;14.20;;;4.90;99.90;;;;;;5006163;28;20026;-80
2024/02/13 02:15:51;;;;;;;25.75;14.13;;;4.90;99.90;;;;;;4988010;28;20516;-80
2024/02/13 02:18:17;;;;;;;22.35;12.77;;;4.90;99.90;;;;;;5006055;28;20148;-79
2024/02/13 02:20:44;;;;;;;22.80;13.93;;;5.00;99.90;;;;;;5005461;28;20026;-80
2024/02/13 02:23:09;;;;;;;24.08;13.15;;;5.00;99.90;;;;;;5006568;28;20028;-79
2024/02/13 02:25:35;;;;;;;21.42;12.93;;;5.00;99.90;;;;;;5005647;28;20025;-80
2024/02/13 02:28:01;;;;;;;19.42;12.85;;;5.00;99.90;;;;;;4988390;28;20046;-79
2024/02/13 02:30:26;;;;;;;24.92;13.20;;;5.00;99.90;;;;;;5006666;28;20075;-79
2024/02/13 02:32:52;;;;;;;22.10;13.57;;;5.00;99.90;;;;;;5005694;28;20022;-80
2024/02/13 02:35:17;;;;;;;24.98;13.63;;;5.00;99.90;;;;;;5006010;28;20608;-79
2024/02/13 02:37:47;;;;;;;21.63;12.70;;;5.00;99.90;;;;;;5005395;28;20028;-79
2024/02/13 02:40:14;;;;;;;19.80;12.73;;;4.90;99.90;;;;;;5005854;28;20018;-80
2024/02/13 02:42:40;;;;;;;21.88;13.43;;;4.90;99.90;;;;;;5005850;28;20084;-79
2024/02/13 02:45:06;;;;;;;21.55;13.05;;;4.90;99.90;;;;;;5006157;28;20021;-80
2024/02/13 02:47:34;;;;;;;18.67;11.70;;;5.00;99.90;;;;;;4988146;28;20053;-80
2024/02/13 02:50:00;;;;;;;23.38;14.15;;;4.90;99.90;;;;;;5005833;28;20642;-80
2024/02/13 02:52:25;;;;;;;19.58;12.65;;;4.90;99.90;;;;;;5005328;28;20113;-79
2024/02/13 02:54:51;;;;;;;24.13;14.52;;;4.90;99.90;;;;;;4987992;28;20030;-80
2024/02/13 02:57:16;;;;;;;18.48;11.93;;;4.90;99.90;;;;;;5008627;28;20048;-80
2024/02/13 02:59:45;;;;;;;25.63;14.57;;;4.90;99.90;;;;;;4992059;28;20084;-80
2024/02/13 03:02:11;;;;;;;23.33;12.80;;;4.90;99.90;;;;;;4991374;28;20050;-80
2024/02/13 03:04:37;;;;;;;24.42;13.88;;;4.90;99.90;;;;;;5009622;28;20076;-80
2024/02/13 03:07:03;;;;;;;20.75;12.55;;;4.90;99.90;;;;;;5009188;28;20029;-80
2024/02/13 03:09:29;;;;;;;22.95;13.27;;;4.90;99.90;;;;;;4996041;28;20021;-79
2024/02/13 03:11:55;;;;;;;26.40;14.00;;;4.90;99.90;;;;;;5009314;28;20030;-80
2024/02/13 03:14:20;;;;;;;23.98;13.15;;;4.90;99.90;;;;;;5009491;28;20750;-79
2024/02/13 03:16:47;;;;;;;24.77;13.60;;;4.90;99.90;;;;;;5009006;28;20056;-80
2024/02/13 03:19:13;;;;;;;21.00;13.35;;;4.90;99.90;;;;;;4991631;28;20049;-79
2024/02/13 03:21:38;;;;;;;26.40;13.68;;;4.90;99.90;;;;;;5008954;28;20041;-80
2024/02/13 03:24:05;;;;;;;23.95;14.32;;;4.90;99.90;;;;;;5009309;28;20446;-80
2024/02/13 03:26:34;;;;;;;19.90;12.77;;;4.90;99.90;;;;;;4990957;28;20113;-79
2024/02/13 03:29:01;;;;;;;22.27;13.85;;;4.90;99.90;;;;;;4991287;28;20041;-79
2024/02/13 03:31:27;;;;;;;21.42;13.40;;;4.90;99.90;;;;;;5009057;28;20049;-80
2024/02/13 03:33:53;;;;;;;20.75;12.85;;;4.80;99.90;;;;;;5009127;28;20030;-79
2024/02/13 03:36:19;;;;;;;22.92;12.90;;;4.90;99.90;;;;;;5008542;28;20048;-79
2024/02/13 03:38:48;;;;;;;23.02;13.55;;;4.90;99.90;;;;;;5008731;28;20395;-80
2024/02/13 03:41:14;;;;;;;25.65;14.25;;;4.80;99.90;;;;;;4991017;28;20593;-80
2024/02/13 03:43:43;;;;;;;21.77;14.10;;;4.80;99.90;;;;;;5008784;28;20366;-80
2024/02/13 03:46:09;;;;;;;23.38;13.40;;;4.80;99.90;;;;;;5008125;28;20568;-79
2024/02/13 03:48:35;;;;;;;20.20;12.43;;;4.80;99.90;;;;;;5008997;28;20026;-80
2024/02/13 03:51:01;;;;;;;19.10;14.00;;;4.80;99.90;;;;;;5008586;28;20036;-79
2024/02/13 03:53:26;;;;;;;25.58;13.88;;;4.80;99.90;;;;;;4991144;28;20053;-79
2024/02/13 03:55:52;;;;;;;21.33;14.02;;;4.80;99.90;;;;;;4990695;28;20030;-79
2024/02/13 03:58:18;;;;;;;21.20;13.27;;;4.80;99.90;;;;;;4990421;28;20034;-79
2024/02/13 04:00:44;;;;;;;19.83;12.98;;;4.80;99.90;;;;;;5008459;28;20061;-80
2024/02/13 04:03:11;;;;;;;18.52;11.93;;;4.80;99.90;;;;;;5008271;28;20116;-79
2024/02/13 04:05:38;;;;;;;24.50;12.88;;;4.80;99.90;;;;;;5008322;28;20076;-80
2024/02/13 04:08:07;;;;;;;24.27;12.63;;;4.80;99.90;;;;;;5007492;28;20030;-79
2024/02/13 04:10:34;;;;;;;25.90;13.77;;;4.70;99.90;;;;;;5008545;28;20080;-79
2024/02/13 04:13:00;;;;;;;18.10;11.60;;;4.70;99.90;;;;;;5008019;28;20033;-79
2024/02/13 04:15:26;;;;;;;16.85;11.93;;;4.70;99.90;;;;;;5008383;28;20025;-79
2024/02/13 04:17:51;;;;;;;22.73;13.25;;;4.70;99.90;;;;;;5007343;28;20100;-79
2024/02/13 04:20:17;;;;;;;20.02;12.10;;;4.80;99.90;;;;;;5007902;28;20065;-81
2024/02/13 04:22:43;;;;;;;20.00;12.70;;;4.70;99.90;;;;;;5007124;28;20030;-81
2024/02/13 04:25:09;;;;;;;23.90;13.27;;;4.70;99.90;;;;;;5008340;28;20018;-81
2024/02/13 04:27:37;;;;;;;22.48;13.02;;;4.70;99.90;;;;;;5007422;28;20018;-81
2024/02/13 04:30:04;;;;;;;20.08;13.05;;;4.70;99.90;;;;;;5008076;28;20523;-81
2024/02/13 04:32:30;;;;;;;22.50;13.93;;;4.70;99.90;;;;;;5007526;28;20017;-81
2024/02/13 04:34:56;;;;;;;26.65;13.52;;;4.70;99.90;;;;;;5008330;28;20383;-81
2024/02/13 04:37:25;;;;;;;21.00;12.80;;;4.70;99.90;;;;;;4989823;28;20022;-81
2024/02/13 04:39:50;;;;;;;21.92;11.82;;;4.70;99.90;;;;;;5008126;28;20045;-80
2024/02/13 04:42:35;;;;;;;25.23;14.25;;;4.70;99.90;;;;;;5007505;28;20037;-81
2024/02/13 04:45:01;;;;;;;18.48;11.35;;;4.70;99.90;;;;;;5007684;28;20105;-81
2024/02/13 04:47:28;;;;;;;23.88;11.40;;;4.70;99.90;;;;;;5007659;28;20060;-81
2024/02/13 04:49:58;;;;;;;17.63;11.88;;;4.70;99.90;;;;;;4989912;28;20092;-81
2024/02/13 04:52:24;;;;;;;19.67;11.95;;;4.70;99.90;;;;;;5007227;28;20113;-81
2024/02/13 04:54:50;;;;;;;23.33;13.07;;;4.70;99.90;;;;;;5007940;28;20113;-81
2024/02/13 04:57:17;;;;;;;17.15;12.27;;;4.60;99.90;;;;;;4989239;28;20495;-81
2024/02/13 04:59:49;;;;;;;20.10;12.80;;;4.70;99.90;;;;;;5007284;28;20084;-81
2024/02/13 05:02:21;;;;;;;19.70;12.43;;;4.70;99.90;;;;;;4989339;28;20066;-81
2024/02/13 05:07:31;;;;;;;21.35;11.57;;;4.60;99.90;;;;;;5003495;28;20044;-81
2024/02/13 05:09:58;;;;;;;17.38;11.35;;;4.60;99.90;;;;;;5007045;28;20034;-81
2024/02/13 05:12:26;;;;;;;21.40;12.20;;;4.60;99.90;;;;;;5006646;28;20053;-81
2024/02/13 05:14:57;;;;;;;22.50;12.80;;;4.60;99.90;;;;;;5006404;28;20325;-81
2024/02/13 05:17:24;;;;;;;23.08;13.55;;;4.60;99.90;;;;;;5006207;28;20471;-81
2024/02/13 05:19:49;;;;;;;19.58;12.70;;;4.60;99.90;;;;;;5006881;28;20483;-81
2024/02/13 05:22:16;;;;;;;21.27;13.20;;;4.60;99.90;;;;;;5006687;28;20036;-81
2024/02/13 05:24:42;;;;;;;21.10;12.68;;;4.60;99.90;;;;;;5007142;28;20156;-81
2024/02/13 05:27:08;;;;;;;17.80;11.35;;;4.60;99.90;;;;;;5007006;28;20137;-80
2024/02/13 05:29:35;;;;;;;23.42;11.40;;;4.60;99.90;;;;;;4989258;28;20041;-81
2024/02/13 05:32:03;;;;;;;19.75;11.80;;;4.60;99.90;;;;;;5006350;28;20032;-82
2024/02/13 05:34:28;;;;;;;21.15;12.18;;;4.60;99.90;;;;;;4989251;28;20053;-82
2024/02/13 05:36:58;;;;;;;22.00;12.07;;;4.60;99.90;;;;;;5006290;28;20026;-82
2024/02/13 05:39:25;;;;;;;22.67;11.93;;;4.60;99.90;;;;;;5006956;28;20026;-81
2024/02/13 05:41:50;;;;;;;22.38;12.10;;;4.60;99.90;;;;;;5005654;28;20028;-81
2024/02/13 05:44:16;;;;;;;23.60;11.98;;;4.60;99.90;;;;;;4989235;28;20022;-81
2024/02/13 05:46:42;;;;;;;18.88;11.98;;;4.60;99.90;;;;;;4988326;28;20092;-80
2024/02/13 05:49:08;;;;;;;21.98;12.70;;;4.60;99.90;;;;;;5006354;28;20793;-80
2024/02/13 05:51:34;;;;;;;19.38;11.50;;;4.60;99.90;;;;;;5006318;28;20033;-80
2024/02/13 05:54:04;;;;;;;19.83;12.13;;;4.60;99.90;;;;;;5006160;28;20022;-80
2024/02/13 05:56:31;;;;;;;24.90;11.80;;;4.60;99.90;;;;;;5006367;28;20038;-80
2024/02/13 05:59:00;;;;;;;18.40;11.55;;;4.60;99.90;;;;;;4988752;28;20284;-80
2024/02/13 06:01:26;;;;;;;17.88;11.55;;;4.60;99.90;;;;;;5005886;28;20546;-80
2024/02/13 06:03:55;;;;;;;19.33;11.00;;;4.60;99.90;;;;;;4988560;28;20140;-80
2024/02/13 06:06:21;;;;;;;23.92;12.02;;;4.60;99.90;;;;;;4999319;28;20019;-80
2024/02/13 06:08:47;;;;;;;18.30;10.88;;;4.60;99.90;;;;;;4983104;28;20080;-80
2024/02/13 06:11:13;;;;;;;18.33;11.07;;;4.60;99.90;;;;;;5006530;28;20030;-80
2024/02/13 06:13:41;;;;;;;25.75;11.98;;;4.60;99.90;;;;;;4988240;28;20036;-80
2024/02/13 06:16:07;;;;;;;22.63;11.32;;;4.60;99.90;;;;;;4988607;28;20407;-80
2024/02/13 06:18:33;;;;;;;18.55;10.75;;;4.60;99.90;;;;;;5005819;28;20048;-80
2024/02/13 06:20:59;;;;;;;22.40;11.43;;;4.60;99.90;;;;;;5006165;28;20082;-80
2024/02/13 06:23:24;;;;;;;19.85;10.52;;;4.60;99.90;;;;;;4988173;28;20021;-80
2024/02/13 06:25:50;;;;;;;22.80;11.80;;;4.60;99.90;;;;;;5005874;28;20034;-80
2024/02/13 06:28:16;;;;;;;20.75;11.45;;;4.60;99.90;;;;;;5005751;28;20033;-80
2024/02/13 06:30:43;;;;;;;22.02;11.15;;;4.60;99.90;;;;;;5006904;28;20411;-80
2024/02/13 06:33:09;;;;;;;24.65;11.88;;;4.50;99.90;;;;;;5009905;28;20026;-80
2024/02/13 06:35:35;;;;;;;20.15;10.25;;;4.50;99.90;;;;;;5009978;28;20041;-80
2024/02/13 06:38:01;;;;;;;23.95;10.32;;;4.50;99.90;;;;;;5009124;28;20033;-81
2024/02/13 06:40:27;;;;;;;26.13;11.07;;;4.50;99.90;;;;;;4991987;28;20080;-81
2024/02/13 06:42:52;;;;;;;22.52;10.73;;;4.50;99.90;;;;;;5009481;28;20704;-81
2024/02/13 06:45:18;;;;;;;18.17;10.48;;;4.50;99.90;;;;;;5006249;28;20022;-82
2024/02/13 06:47:45;;;;;;;19.83;10.00;;;4.50;99.90;;;;;;4997586;28;20104;-82
2024/02/13 06:50:13;;;;;;;18.77;10.43;;;4.60;99.90;;;;;;5008964;28;20022;-81
2024/02/13 06:52:40;;;;;;;20.50;9.75;;;4.60;99.90;;;;;;4991550;28;20034;-81
2024/02/13 06:55:09;;;;;;;17.60;9.48;;;4.50;99.90;;;;;;5009428;28;20017;-81
2024/02/13 06:57:35;;;;;;;22.10;10.02;;;4.60;99.90;;;;;;5009678;28;20040;-80
2024/02/13 07:00:09;;;;;;;20.90;9.35;;;4.60;99.90;;;;;;5009510;28;20036;-81
2024/02/13 07:02:35;;;;;;;20.45;8.95;;;4.60;99.90;;;;;;5007199;28;20032;-81
2024/02/13 07:05:01;;;;;;;20.73;8.70;;;4.60;99.90;;;;;;5009289;28;20472;-81
2024/02/13 07:07:27;;;;;;;19.63;8.35;;;4.60;99.90;;;;;;4987271;28;20080;-81
2024/02/13 07:09:53;;;;;;;17.10;8.02;;;4.60;99.90;;;;;;5006465;28;20030;-81
2024/02/13 07:12:20;;;;;;;21.10;8.48;;;4.60;99.90;;;;;;5008166;28;20113;-82
2024/02/13 07:14:47;;;;;;;20.15;8.55;;;4.60;99.90;;;;;;4991133;28;20092;-81
2024/02/13 07:17:13;;;;;;;16.75;7.25;;;4.60;99.90;;;;;;5008665;28;20030;-81
2024/02/13 07:19:41;;;;;;;22.50;8.60;;;4.60;99.90;;;;;;5008675;28;20033;-81
2024/02/13 07:22:07;;;;;;;13.57;7.32;;;4.60;99.90;;;;;;5008626;28;20559;-81
2024/02/13 07:24:35;;;;;;;15.02;7.72;;;4.60;99.90;;;;;;5008318;28;20132;-81
2024/02/13 07:27:01;;;;;;;16.42;7.50;;;4.60;99.90;;;;;;4990143;28;20683;-80
2024/02/13 07:29:26;;;;;;;16.02;7.63;;;4.70;99.90;;;;;;4989310;28;20037;-80
2024/02/13 07:31:52;;;;;;;16.42;6.82;;;4.70;99.90;;;;;;5006850;28;20018;-81
2024/02/13 07:34:20;;;;;;;15.85;8.10;;;4.70;99.90;;;;;;5007224;28;20411;-81
2024/02/13 07:36:46;;;;;;;20.52;8.60;;;4.70;99.90;;;;;;5006721;28;20026;-81
2024/02/13 07:39:11;;;;;;;16.58;6.85;;;4.70;99.90;;;;;;5004956;28;20121;-81
2024/02/13 07:41:37;;;;;;;21.65;7.00;;;4.70;99.90;;;;;;5006065;28;20033;-81
2024/02/13 07:44:03;;;;;;;16.55;7.07;;;4.70;99.90;;;;;;5007843;28;20022;-81
2024/02/13 07:46:29;;;;;;;18.83;7.13;;;4.70;99.90;;;;;;5005083;28;20431;-81
2024/02/13 07:48:55;;;;;;;15.25;6.45;;;4.70;99.90;;;;;;5003176;28;20050;-81
2024/02/13 07:51:21;;;;;;;14.35;6.20;;;4.70;99.90;;;;;;5004653;28;20026;-81
2024/02/13 07:53:47;;;;;;;16.55;7.30;;;4.80;99.90;;;;;;5005491;28;20022;-81
2024/02/13 07:56:13;;;;;;;13.30;5.72;;;4.80;99.90;;;;;;5006929;28;20040;-81
2024/02/13 07:58:39;;;;;;;13.30;5.88;;;4.80;99.90;;;;;;4989343;28;20080;-80
2024/02/13 08:01:07;;;;;;;22.98;6.65;;;4.80;99.90;;;;;;4986640;28;20496;-81
2024/02/13 08:03:34;;;;;;;18.02;6.70;;;4.80;99.90;;;;;;5002027;28;20034;-81
2024/02/13 08:06:01;;;;;;;17.60;6.13;;;4.90;99.90;;;;;;5001036;28;20018;-81
2024/02/13 08:08:28;;;;;;;15.18;5.82;;;4.90;99.90;;;;;;5004076;28;20053;-82
2024/02/13 08:10:54;;;;;;;14.40;6.18;;;4.90;99.90;;;;;;5006125;28;20030;-81
2024/02/13 08:13:20;;;;;;;18.67;6.32;;;5.00;99.90;;;;;;5006901;28;20061;-82
2024/02/13 08:15:48;;;;;;;12.40;6.00;;;5.00;99.90;;;;;;4989955;28;20468;-81
2024/02/13 08:18:17;;;;;;;12.27;5.68;;;5.10;99.90;;;;;;5005985;28;20052;-81
2024/02/13 08:20:43;;;;;;;12.35;5.80;;;5.10;99.90;;;;;;4999594;28;20037;-82
2024/02/13 08:23:09;;;;;;;14.07;6.05;;;5.10;99.90;;;;;;4994531;28;20040;-81
2024/02/13 08:25:34;;;;;;;13.00;5.35;;;5.20;99.90;;;;;;4990324;28;20026;-81
2024/02/13 08:28:00;;;;;;;11.43;5.35;;;5.20;99.90;;;;;;5007343;28;20018;-81
2024/02/13 08:30:26;;;;;;;15.43;6.35;;;5.30;99.90;;;;;;5007453;28;20518;-80
2024/02/13 08:32:51;;;;;;;15.05;5.15;;;5.30;99.90;;;;;;5000401;28;20022;-81
2024/02/13 08:35:19;;;;;;;11.95;4.95;;;5.30;99.90;;;;;;5002024;28;20767;-81
2024/02/13 08:37:45;;;;;;;21.27;5.65;;;5.40;99.90;;;;;;4997767;28;20483;-79
2024/02/13 08:40:15;;;;;;;12.65;5.25;;;5.40;99.90;;;;;;4989763;28;20026;-80
2024/02/13 08:42:41;;;;;;;9.38;4.75;;;5.40;99.90;;;;;;5006315;28;20444;-80
2024/02/13 08:45:08;;;;;;;13.05;4.60;;;5.40;99.90;;;;;;5007510;28;20026;-83
2024/02/13 08:47:34;;;;;;;12.18;4.95;;;5.50;99.90;;;;;;4989445;28;20472;-81
2024/02/13 08:50:00;;;;;;;16.00;5.43;;;5.60;99.90;;;;;;5007418;28;20051;-81
2024/02/13 08:52:26;;;;;;;14.02;4.50;;;5.60;99.90;;;;;;5007091;28;20101;-82
2024/02/13 08:54:52;;;;;;;13.27;4.97;;;5.60;99.90;;;;;;5006965;28;20045;-81
2024/02/13 08:57:18;;;;;;;10.27;4.45;;;5.70;99.90;;;;;;5007397;28;20060;-82
2024/02/13 08:59:46;;;;;;;12.55;5.32;;;5.70;99.90;;;;;;5006994;28;20460;-82
2024/02/13 09:02:12;;;;;;;16.60;4.38;;;5.70;99.90;;;;;;4999541;28;20026;-82
2024/02/13 09:04:38;;;;;;;12.70;4.55;;;5.80;99.90;;;;;;5002476;28;20080;-81
2024/02/13 09:07:04;;;;;;;10.90;4.22;;;5.90;99.90;;;;;;4996807;28;20025;-81
2024/02/13 09:09:32;;;;;;;16.10;4.85;;;5.90;99.90;;;;;;4987048;28;20432;-81
2024/02/13 09:11:59;;;;;;;9.25;3.70;;;6.00;99.90;;;;;;4983987;28;20042;-79
2024/02/13 09:14:24;;;;;;;13.30;4.35;;;6.00;99.90;;;;;;5004656;28;20032;-80
2024/02/13 09:16:50;;;;;;;10.20;3.97;;;6.10;99.90;;;;;;5006469;28;20022;-81
2024/02/13 09:19:15;;;;;;;12.65;4.32;;;6.20;99.90;;;;;;5003146;28;20410;-82
2024/02/13 09:21:43;;;;;;;13.48;4.00;;;6.30;99.90;;;;;;5006967;28;20022;-81
2024/02/13 09:24:09;;;;;;;14.07;5.22;;;6.40;99.90;;;;;;5006560;28;20034;-82
2024/02/13 09:26:35;;;;;;;13.85;4.75;;;6.50;99.90;;;;;;5006442;28;20045;-81
2024/02/13 09:29:01;;;;;;;13.32;4.22;;;6.60;99.90;;;;;;5000732;28;20038;-81
2024/02/13 09:31:29;;;;;;;12.70;3.72;;;6.70;99.90;;;;;;5006480;28;20076;-82
2024/02/13 09:33:55;;;;;;;14.48;3.67;;;6.70;99.90;;;;;;5005789;28;20022;-82
2024/02/13 09:36:21;;;;;;;12.05;4.00;;;6.80;99.90;;;;;;5006861;28;20029;-81
2024/02/13 09:38:47;;;;;;;14.00;4.68;;;6.90;99.90;;;;;;5005603;28;20026;-81
2024/02/13 09:41:14;;;;;;;12.45;4.25;;;7.00;99.90;;;;;;5006486;28;20036;-82
2024/02/13 09:43:40;;;;;;;11.88;4.05;;;7.10;99.90;;;;;;5006044;28;20031;-81
2024/02/13 09:46:06;;;;;;;18.77;7.22;;;7.20;99.90;;;;;;5006806;28;20026;-82
2024/02/13 09:48:37;;;;;;;13.80;4.93;;;7.30;99.90;;;;;;5005417;28;20484;-80
2024/02/13 09:51:08;;;;;;;12.55;3.88;;;7.40;99.90;;;;;;5006237;28;20026;-82
2024/02/13 09:53:40;;;;;;;9.65;3.78;;;7.40;99.90;;;;;;4988487;28;20029;-82
2024/02/13 09:56:06;;;;;;;17.27;4.38;;;7.50;99.90;;;;;;5006433;28;20076;-81
2024/02/13 09:58:33;;;;;;;12.43;3.63;;;7.50;99.90;;;;;;5005926;28;20030;-81
2024/02/13 10:00:59;;;;;;;16.15;3.53;;;7.50;99.90;;;;;;4992468;28;20393;-82
2024/02/13 10:03:25;;;;;;;8.52;3.20;;;7.50;99.90;;;;;;4988314;28;20030;-82
2024/02/13 10:05:52;;;;;;;11.13;3.45;;;7.50;99.90;;;;;;5005407;28;20403;-82
2024/02/13 10:08:20;;;;;;;15.57;4.60;;;7.60;99.90;;;;;;5005879;28;20520;-81
2024/02/13 10:10:46;;;;;;;11.75;4.03;;;7.60;99.90;;;;;;5006098;28;20022;-82
2024/02/13 10:13:12;;;;;;;12.30;3.45;;;7.60;99.90;;;;;;5005567;28;20787;-82
2024/02/13 10:15:40;;;;;;;8.15;3.55;;;7.70;99.90;;;;;;4988694;28;20034;-82
2024/02/13 10:18:08;;;;;;;11.50;4.35;;;7.70;99.90;;;;;;5005466;28;20037;-81
2024/02/13 10:20:34;;;;;;;11.32;3.40;;;7.70;99.90;;;;;;5005298;28;20433;-82
2024/02/13 10:23:00;;;;;;;9.18;3.22;;;7.90;99.90;;;;;;5002072;28;20072;-81
2024/02/13 10:25:31;;;;;;;12.07;3.58;;;8.00;99.90;;;;;;4988487;28;20089;-82
2024/02/13 10:28:05;;;;;;;;;;;8.00;99.90;;;;;;5005720;28;20053;-83
2024/02/13 10:30:31;;;;;;;7.75;2.95;;;8.10;99.90;;;;;;5006190;28;19909;-80
2024/02/13 10:33:06;;;;;;;8.60;3.53;;;8.10;99.90;;;;;;4987514;28;20057;-80
2024/02/13 10:35:32;;;;;;;8.73;2.67;;;8.20;99.90;;;;;;4992823;28;20228;-82
2024/02/13 10:37:59;;;;;;;9.57;3.05;;;8.30;99.90;;;;;;4983208;28;20118;-82
2024/02/13 10:40:27;;;;;;;10.35;3.17;;;8.40;99.90;;;;;;5005979;28;20014;-83
2024/02/13 10:42:57;;;;;;;12.45;3.60;;;8.50;99.90;;;;;;5004873;28;20041;-83
2024/02/13 10:45:32;;;;;;;11.70;3.60;;;8.60;99.90;;;;;;4988024;28;20022;-82
2024/02/13 10:48:21;;;;;;;11.20;3.60;;;8.70;99.90;;;;;;5004056;28;20558;-81
2024/02/13 10:50:50;;;;;;;8.93;3.22;;;8.70;99.90;;;;;;4975074;28;20026;-80
2024/02/13 10:53:18;;;;;;;11.77;3.35;;;8.80;99.90;;;;;;5005379;28;20369;-81
2024/02/13 10:55:46;;;;;;;20.40;3.30;;;8.90;99.90;;;;;;5002448;28;20026;-80
2024/02/13 10:58:15;;;;;;;12.05;3.10;;;8.90;99.90;;;;;;4998271;28;20022;-80
2024/02/13 11:00:41;;;;;;;9.80;3.17;;;9.00;99.90;;;;;;4987752;28;20022;-80
2024/02/13 11:03:10;;;;;;;10.48;3.47;;;9.10;99.90;;;;;;4973854;28;20090;-81
2024/02/13 11:05:36;;;;;;;11.25;3.05;;;9.20;99.90;;;;;;4984395;28;20037;-80
2024/02/13 11:08:02;;;;;;;8.77;2.83;;;9.20;99.90;;;;;;4968564;28;20026;-80
2024/02/13 11:10:34;;;;;;;9.15;3.10;;;9.30;99.90;;;;;;4979569;28;20022;-80
2024/02/13 11:13:05;;;;;;;10.82;3.55;;;9.40;99.90;;;;;;5005557;28;20025;-80
2024/02/13 11:15:33;;;;;;;6.43;3.05;;;9.50;99.90;;;;;;5005970;28;20507;-81
2024/02/13 11:18:05;;;;;;;9.88;3.03;;;9.60;99.90;;;;;;5007689;28;20357;-80
2024/02/13 11:20:30;;;;;;;8.13;2.90;;;9.60;99.90;;;;;;5009616;28;20018;-81
2024/02/13 11:22:59;;;;;;;7.78;2.72;;;9.70;99.90;;;;;;4990464;28;20175;-81
2024/02/13 11:25:31;;;;;;;12.02;3.67;;;9.80;99.90;;;;;;5000715;28;20140;-80
2024/02/13 11:28:05;;;;;;;8.07;2.60;;;9.80;99.90;;;;;;5007851;28;20635;-81
2024/02/13 11:30:37;;;;;;;7.97;2.95;;;9.90;99.90;;;;;;5009253;28;20423;-82
2024/02/13 11:33:05;;;;;;;9.85;2.95;;;10.00;99.90;;;;;;5008181;28;20037;-81
2024/02/13 11:35:36;;;;;;;9.18;3.17;;;10.00;99.90;;;;;;5008865;28;20424;-81
2024/02/13 11:38:15;;;;;;;8.60;2.95;;;10.10;99.90;;;;;;4990587;28;20077;-82
2024/02/13 11:40:47;;;;;;;10.23;3.17;;;10.20;99.90;;;;;;4995946;28;20025;-80
2024/02/13 11:43:29;;;;;;;10.20;3.00;;;10.20;99.90;;;;;;5008658;28;20024;-81
2024/02/13 11:45:57;;;;;;;7.55;2.72;;;10.30;99.90;;;;;;4997355;28;20113;-82
2024/02/13 11:48:25;;;;;;;8.32;2.50;;;10.30;99.90;;;;;;5008539;28;20042;-83
2024/02/13 11:50:55;;;;;;;8.65;2.47;;;10.30;99.90;;;;;;5008565;28;20022;-82
2024/02/13 11:53:22;;;;;;;8.43;2.42;;;10.40;99.90;;;;;;5008521;28;20079;-84
2024/02/13 11:55:49;;;;;;;8.23;3.00;;;10.40;99.90;;;;;;4990399;28;20113;-82
2024/02/13 11:58:22;;;;;;;10.55;2.63;;;10.50;99.90;;;;;;5008113;28;20014;-83
2024/02/13 12:01:04;;;;;;;6.43;2.50;;;10.60;99.90;;;;;;5008047;28;20378;-82
2024/02/13 12:03:35;;;;;;;8.13;2.17;;;10.60;99.90;;;;;;5007864;28;20018;-84
2024/02/13 12:06:05;;;;;;;7.47;2.72;;;10.80;99.90;;;;;;5008206;28;20324;-83
2024/02/13 12:08:36;;;;;;;9.63;2.90;;;10.90;99.90;;;;;;5007685;28;20030;-82
2024/02/13 12:11:03;;;;;;;11.32;3.22;;;10.90;99.90;;;;;;5008224;28;20021;-82
2024/02/13 12:13:31;;;;;;;7.88;2.55;;;10.80;99.90;;;;;;4990116;28;20105;-82
2024/02/13 12:15:58;;;;;;;8.80;3.63;;;10.80;99.90;;;;;;5007806;28;20065;-82
2024/02/13 12:18:32;;;;;;;10.10;3.10;;;10.90;99.90;;;;;;5007565;28;20132;-82
2024/02/13 12:20:59;;;;;;;7.57;2.50;;;10.90;99.90;;;;;;5008009;28;20045;-83
2024/02/13 12:23:25;;;;;;;7.30;2.65;;;10.90;99.90;;;;;;4990174;28;20075;-83
2024/02/13 12:26:01;;;;;;;5.78;2.25;;;11.00;99.90;;;;;;5007806;28;20018;-83
2024/02/13 12:28:28;;;;;;;8.15;2.38;;;11.10;99.90;;;;;;5006660;28;20029;-83
2024/02/13 12:30:55;;;;;;;4.80;2.70;;;11.20;99.90;;;;;;5007797;28;20037;-83
2024/02/13 12:33:23;;;;;;;9.48;2.30;;;11.30;99.90;;;;;;5007662;28;20108;-81
2024/02/13 12:36:02;;;;;;;4.82;2.08;;;11.40;99.90;;;;;;5007929;28;20083;-83
2024/02/13 12:38:29;;;;;;;5.63;2.10;;;11.40;99.90;;;;;;5007825;28;20419;-82
2024/02/13 12:40:56;;;;;;;5.55;2.20;;;11.40;99.90;;;;;;5007598;28;20034;-81
2024/02/13 12:43:27;;;;;;;7.03;2.25;;;11.40;99.90;;;;;;5006859;28;20025;-82
2024/02/13 12:46:02;;;;;;;6.97;2.38;;;11.50;99.90;;;;;;5007782;28;20022;-81